sensor_id;sensor_type;location;lat;lon;timestamp;P1;P2;P0
51320;PMS5003;38732;49.556;6.286;2022-12-05T00:01:25;25.00;16.80;9.80
51320;PMS5003;38732;49.556;6.286;2022-12-05T00:03:57;25.40;20.80;11.00
51320;PMS5003;38732;49.556;6.286;2022-12-05T00:06:28;18.00;18.00;9.00
51320;PMS5003;38732;49.556;6.286;2022-12-05T00:08:57;17.60;16.40;8.00
51320;PMS5003;38732;49.556;6.286;2022-12-05T00:11:27;16.75;15.50;8.00
51320;PMS5003;38732;49.556;6.286;2022-12-05T00:13:58;19.40;12.80;9.40
51320;PMS5003;38732;49.556;6.286;2022-12-05T00:16:28;13.80;11.20;7.20
51320;PMS5003;38732;49.556;6.286;2022-12-05T00:18:58;19.00;16.20;11.20
51320;PMS5003;38732;49.556;6.286;2022-12-05T00:21:29;23.20;21.20;12.20
51320;PMS5003;38732;49.556;6.286;2022-12-05T00:23:59;20.80;17.00;11.00
51320;PMS5003;38732;49.556;6.286;2022-12-05T00:26:29;22.40;17.80;7.00
51320;PMS5003;38732;49.556;6.286;2022-12-05T00:28:58;21.20;18.80;10.00
51320;PMS5003;38732;49.556;6.286;2022-12-05T00:31:27;21.00;16.25;8.00
51320;PMS5003;38732;49.556;6.286;2022-12-05T00:33:58;18.00;18.00;7.00
51320;PMS5003;38732;49.556;6.286;2022-12-05T00:36:29;19.20;16.60;8.00
51320;PMS5003;38732;49.556;6.286;2022-12-05T00:39:00;25.40;16.60;8.80
51320;PMS5003;38732;49.556;6.286;2022-12-05T00:41:30;24.00;19.40;11.00
51320;PMS5003;38732;49.556;6.286;2022-12-05T00:43:59;24.75;20.00;9.50
51320;PMS5003;38732;49.556;6.286;2022-12-05T00:46:29;16.00;16.00;8.20
51320;PMS5003;38732;49.556;6.286;2022-12-05T00:48:59;17.00;15.80;10.00
51320;PMS5003;38732;49.556;6.286;2022-12-05T00:51:29;22.80;18.60;10.40
51320;PMS5003;38732;49.556;6.286;2022-12-05T00:54:00;18.00;15.60;8.00
51320;PMS5003;38732;49.556;6.286;2022-12-05T00:56:30;20.80;15.00;8.60
51320;PMS5003;38732;49.556;6.286;2022-12-05T00:58:59;17.50;16.50;9.50
51320;PMS5003;38732;49.556;6.286;2022-12-05T01:04:16;22.40;21.60;13.00
51320;PMS5003;38732;49.556;6.286;2022-12-05T01:06:49;26.60;20.40;10.00
51320;PMS5003;38732;49.556;6.286;2022-12-05T01:09:20;19.00;18.80;10.40
51320;PMS5003;38732;49.556;6.286;2022-12-05T01:11:49;19.75;16.25;8.50
51320;PMS5003;38732;49.556;6.286;2022-12-05T01:14:18;26.00;19.00;12.00
51320;PMS5003;38732;49.556;6.286;2022-12-05T01:16:48;18.20;16.80;9.00
51320;PMS5003;38732;49.556;6.286;2022-12-05T01:19:19;20.80;17.40;8.40
51320;PMS5003;38732;49.556;6.286;2022-12-05T01:21:55;15.80;14.60;7.40
51320;PMS5003;38732;49.556;6.286;2022-12-05T01:24:24;18.00;15.75;9.00
51320;PMS5003;38732;49.556;6.286;2022-12-05T01:26:53;17.60;15.40;9.00
51320;PMS5003;38732;49.556;6.286;2022-12-05T01:29:22;22.00;18.50;10.00
51320;PMS5003;38732;49.556;6.286;2022-12-05T01:31:51;23.40;23.40;12.60
51320;PMS5003;38732;49.556;6.286;2022-12-05T01:34:20;23.00;21.00;11.00
51320;PMS5003;38732;49.556;6.286;2022-12-05T01:36:49;19.50;18.00;10.00
51320;PMS5003;38732;49.556;6.286;2022-12-05T01:39:17;30.75;24.75;13.25
51320;PMS5003;38732;49.556;6.286;2022-12-05T01:41:46;31.75;26.25;13.00
51320;PMS5003;38732;49.556;6.286;2022-12-05T01:46:45;27.20;21.00;12.00
51320;PMS5003;38732;49.556;6.286;2022-12-05T01:49:23;21.00;16.20;6.00
51320;PMS5003;38732;49.556;6.286;2022-12-05T01:51:57;22.60;17.00;13.00
51320;PMS5003;38732;49.556;6.286;2022-12-05T01:54:28;25.00;17.80;10.80
51320;PMS5003;38732;49.556;6.286;2022-12-05T01:56:59;18.25;15.00;10.00
51320;PMS5003;38732;49.556;6.286;2022-12-05T01:59:31;16.20;14.40;8.00
51320;PMS5003;38732;49.556;6.286;2022-12-05T02:02:03;14.20;14.20;9.00
51320;PMS5003;38732;49.556;6.286;2022-12-05T02:04:34;18.00;14.50;10.00
51320;PMS5003;38732;49.556;6.286;2022-12-05T02:07:08;16.00;14.00;8.00
51320;PMS5003;38732;49.556;6.286;2022-12-05T02:09:37;18.50;15.00;7.00
51320;PMS5003;38732;49.556;6.286;2022-12-05T02:12:05;18.50;15.50;8.50
51320;PMS5003;38732;49.556;6.286;2022-12-05T02:14:48;24.25;18.50;11.00
51320;PMS5003;38732;49.556;6.286;2022-12-05T02:26:27;16.00;15.60;9.80
51320;PMS5003;38732;49.556;6.286;2022-12-05T02:32:09;18.20;17.00;10.00
51320;PMS5003;38732;49.556;6.286;2022-12-05T02:34:59;16.20;15.60;9.00
51320;PMS5003;38732;49.556;6.286;2022-12-05T02:37:39;16.20;14.40;8.00
51320;PMS5003;38732;49.556;6.286;2022-12-05T02:40:19;18.40;18.40;8.80
51320;PMS5003;38732;49.556;6.286;2022-12-05T02:42:56;14.60;12.80;7.00
51320;PMS5003;38732;49.556;6.286;2022-12-05T02:45:27;21.60;16.00;9.00
51320;PMS5003;38732;49.556;6.286;2022-12-05T02:47:58;24.80;19.80;9.60
51320;PMS5003;38732;49.556;6.286;2022-12-05T02:50:29;15.50;14.75;8.00
51320;PMS5003;38732;49.556;6.286;2022-12-05T02:53:03;16.60;16.00;8.80
51320;PMS5003;38732;49.556;6.286;2022-12-05T02:55:35;20.40;15.80;8.80
51320;PMS5003;38732;49.556;6.286;2022-12-05T02:58:08;17.80;16.00;8.40
51320;PMS5003;38732;49.556;6.286;2022-12-05T03:00:42;12.20;12.20;7.40
51320;PMS5003;38732;49.556;6.286;2022-12-05T03:03:15;20.80;14.60;8.80
51320;PMS5003;38732;49.556;6.286;2022-12-05T03:05:55;19.20;18.80;10.00
51320;PMS5003;38732;49.556;6.286;2022-12-05T03:08:27;19.40;15.20;8.20
51320;PMS5003;38732;49.556;6.286;2022-12-05T03:11:02;16.40;15.40;9.00
51320;PMS5003;38732;49.556;6.286;2022-12-05T03:13:39;18.00;15.40;10.00
51320;PMS5003;38732;49.556;6.286;2022-12-05T03:16:14;17.80;16.00;8.80
51320;PMS5003;38732;49.556;6.286;2022-12-05T03:18:48;12.20;11.60;3.60
51320;PMS5003;38732;49.556;6.286;2022-12-05T03:24:08;14.20;12.00;6.40
51320;PMS5003;38732;49.556;6.286;2022-12-05T03:29:34;22.40;17.20;11.20
51320;PMS5003;38732;49.556;6.286;2022-12-05T03:32:10;17.00;14.60;9.20
51320;PMS5003;38732;49.556;6.286;2022-12-05T03:34:54;19.40;15.20;7.00
51320;PMS5003;38732;49.556;6.286;2022-12-05T03:38:13;8.40;2.40;0.00
51320;PMS5003;38732;49.556;6.286;2022-12-05T03:40:31;24.40;19.00;11.00
51320;PMS5003;38732;49.556;6.286;2022-12-05T03:43:42;13.60;13.20;7.60
51320;PMS5003;38732;49.556;6.286;2022-12-05T03:46:20;15.00;15.00;8.40
51320;PMS5003;38732;49.556;6.286;2022-12-05T03:52:06;16.40;13.00;7.80
51320;PMS5003;38732;49.556;6.286;2022-12-05T03:57:14;17.00;15.20;8.00
51320;PMS5003;38732;49.556;6.286;2022-12-05T04:02:56;16.20;13.00;8.00
51320;PMS5003;38732;49.556;6.286;2022-12-05T04:08:27;21.60;18.60;9.40
51320;PMS5003;38732;49.556;6.286;2022-12-05T04:11:01;18.00;16.80;9.20
51320;PMS5003;38732;49.556;6.286;2022-12-05T04:13:36;17.60;16.80;8.40
51320;PMS5003;38732;49.556;6.286;2022-12-05T04:16:12;19.20;19.00;9.60
51320;PMS5003;38732;49.556;6.286;2022-12-05T04:18:48;23.80;17.40;10.40
51320;PMS5003;38732;49.556;6.286;2022-12-05T04:21:23;16.80;15.80;10.00
51320;PMS5003;38732;49.556;6.286;2022-12-05T04:23:58;18.00;16.20;9.80
51320;PMS5003;38732;49.556;6.286;2022-12-05T04:26:27;14.00;11.50;8.00
51320;PMS5003;38732;49.556;6.286;2022-12-05T04:29:10;15.80;13.20;4.40
51320;PMS5003;38732;49.556;6.286;2022-12-05T04:31:47;23.60;20.80;10.60
51320;PMS5003;38732;49.556;6.286;2022-12-05T04:34:19;18.80;16.60;10.00
51320;PMS5003;38732;49.556;6.286;2022-12-05T04:36:53;19.20;14.80;10.40
51320;PMS5003;38732;49.556;6.286;2022-12-05T04:42:53;20.20;15.20;9.80
51320;PMS5003;38732;49.556;6.286;2022-12-05T04:45:23;21.20;15.20;9.80
51320;PMS5003;38732;49.556;6.286;2022-12-05T04:47:54;18.00;14.00;7.20
51320;PMS5003;38732;49.556;6.286;2022-12-05T04:50:29;14.60;13.40;6.00
51320;PMS5003;38732;49.556;6.286;2022-12-05T04:52:59;5.20;4.80;1.00
51320;PMS5003;38732;49.556;6.286;2022-12-05T04:55:30;18.60;17.40;9.40
51320;PMS5003;38732;49.556;6.286;2022-12-05T04:58:11;22.80;19.20;9.80
51320;PMS5003;38732;49.556;6.286;2022-12-05T05:00:49;21.80;18.80;10.00
51320;PMS5003;38732;49.556;6.286;2022-12-05T05:03:41;21.20;19.00;8.00
51320;PMS5003;38732;49.556;6.286;2022-12-05T05:06:16;17.40;13.20;7.20
51320;PMS5003;38732;49.556;6.286;2022-12-05T05:08:52;19.00;13.20;7.20
51320;PMS5003;38732;49.556;6.286;2022-12-05T05:11:23;25.40;19.80;9.60
51320;PMS5003;38732;49.556;6.286;2022-12-05T05:13:53;16.20;13.40;8.00
51320;PMS5003;38732;49.556;6.286;2022-12-05T05:16:23;17.80;12.40;9.00
51320;PMS5003;38732;49.556;6.286;2022-12-05T05:18:59;16.40;14.80;10.20
51320;PMS5003;38732;49.556;6.286;2022-12-05T05:21:29;22.25;19.00;9.00
51320;PMS5003;38732;49.556;6.286;2022-12-05T05:23:59;18.40;16.40;8.60
51320;PMS5003;38732;49.556;6.286;2022-12-05T05:26:28;17.60;14.20;9.60
51320;PMS5003;38732;49.556;6.286;2022-12-05T05:28:58;15.20;13.80;7.60
51320;PMS5003;38732;49.556;6.286;2022-12-05T05:31:26;17.00;14.50;9.00
51320;PMS5003;38732;49.556;6.286;2022-12-05T05:33:55;22.00;17.25;9.00
51320;PMS5003;38732;49.556;6.286;2022-12-05T05:36:24;17.80;13.60;5.00
51320;PMS5003;38732;49.556;6.286;2022-12-05T05:38:55;22.60;14.20;8.00
51320;PMS5003;38732;49.556;6.286;2022-12-05T05:41:32;18.40;13.00;8.00
51320;PMS5003;38732;49.556;6.286;2022-12-05T05:44:02;26.00;18.80;9.80
51320;PMS5003;38732;49.556;6.286;2022-12-05T05:46:32;21.20;16.60;9.60
51320;PMS5003;38732;49.556;6.286;2022-12-05T05:49:01;18.80;17.20;8.20
51320;PMS5003;38732;49.556;6.286;2022-12-05T05:51:30;19.20;15.60;7.20
51320;PMS5003;38732;49.556;6.286;2022-12-05T05:53:59;20.50;16.00;8.25
51320;PMS5003;38732;49.556;6.286;2022-12-05T05:56:28;14.25;12.75;7.00
51320;PMS5003;38732;49.556;6.286;2022-12-05T05:58:57;21.25;16.50;9.00
51320;PMS5003;38732;49.556;6.286;2022-12-05T06:01:30;16.00;13.80;9.80
51320;PMS5003;38732;49.556;6.286;2022-12-05T06:03:58;9.00;4.00;1.00
51320;PMS5003;38732;49.556;6.286;2022-12-05T06:06:26;21.25;19.00;10.00
51320;PMS5003;38732;49.556;6.286;2022-12-05T06:08:54;13.00;10.00;8.00
51320;PMS5003;38732;49.556;6.286;2022-12-05T06:11:23;33.25;26.75;17.25
51320;PMS5003;38732;49.556;6.286;2022-12-05T06:13:53;26.60;21.40;13.00
51320;PMS5003;38732;49.556;6.286;2022-12-05T06:16:22;19.00;17.60;10.20
51320;PMS5003;38732;49.556;6.286;2022-12-05T06:18:51;18.75;13.75;7.00
51320;PMS5003;38732;49.556;6.286;2022-12-05T06:21:20;19.25;17.25;7.50
51320;PMS5003;38732;49.556;6.286;2022-12-05T06:23:49;19.00;17.00;7.00
51320;PMS5003;38732;49.556;6.286;2022-12-05T06:26:18;21.50;15.00;7.50
51320;PMS5003;38732;49.556;6.286;2022-12-05T06:28:48;19.40;16.00;10.00
51320;PMS5003;38732;49.556;6.286;2022-12-05T06:31:18;20.25;16.75;8.00
51320;PMS5003;38732;49.556;6.286;2022-12-05T06:33:48;21.20;16.00;7.40
51320;PMS5003;38732;49.556;6.286;2022-12-05T06:36:18;14.50;13.25;5.00
51320;PMS5003;38732;49.556;6.286;2022-12-05T06:38:47;22.60;17.40;10.60
51320;PMS5003;38732;49.556;6.286;2022-12-05T06:41:17;18.00;18.00;9.50
51320;PMS5003;38732;49.556;6.286;2022-12-05T06:43:46;13.20;10.80;5.00
51320;PMS5003;38732;49.556;6.286;2022-12-05T06:46:15;21.00;16.00;8.50
51320;PMS5003;38732;49.556;6.286;2022-12-05T06:48:43;20.25;17.50;11.00
51320;PMS5003;38732;49.556;6.286;2022-12-05T06:51:13;23.00;16.00;8.00
51320;PMS5003;38732;49.556;6.286;2022-12-05T06:53:43;20.40;18.60;10.00
51320;PMS5003;38732;49.556;6.286;2022-12-05T06:56:12;19.50;11.50;8.00
51320;PMS5003;38732;49.556;6.286;2022-12-05T06:58:43;18.20;16.60;10.00
51320;PMS5003;38732;49.556;6.286;2022-12-05T07:01:13;21.00;17.00;7.80
51320;PMS5003;38732;49.556;6.286;2022-12-05T07:03:49;17.60;15.60;9.80
51320;PMS5003;38732;49.556;6.286;2022-12-05T07:06:18;23.20;16.00;10.40
51320;PMS5003;38732;49.556;6.286;2022-12-05T07:08:46;15.25;12.25;6.00
51320;PMS5003;38732;49.556;6.286;2022-12-05T07:11:14;23.00;18.50;10.75
51320;PMS5003;38732;49.556;6.286;2022-12-05T07:13:42;21.25;18.25;10.00
51320;PMS5003;38732;49.556;6.286;2022-12-05T07:16:10;19.25;14.25;8.50
51320;PMS5003;38732;49.556;6.286;2022-12-05T07:18:39;17.25;13.00;9.00
51320;PMS5003;38732;49.556;6.286;2022-12-05T07:21:09;18.75;14.50;8.00
51320;PMS5003;38732;49.556;6.286;2022-12-05T07:23:40;20.60;17.40;9.60
51320;PMS5003;38732;49.556;6.286;2022-12-05T07:26:13;20.80;16.60;7.60
51320;PMS5003;38732;49.556;6.286;2022-12-05T07:28:44;23.40;16.00;8.80
51320;PMS5003;38732;49.556;6.286;2022-12-05T07:31:14;29.75;22.00;10.00
51320;PMS5003;38732;49.556;6.286;2022-12-05T07:33:51;19.40;17.40;11.00
51320;PMS5003;38732;49.556;6.286;2022-12-05T07:36:20;18.00;16.75;10.00
51320;PMS5003;38732;49.556;6.286;2022-12-05T07:38:53;19.40;16.80;7.60
51320;PMS5003;38732;49.556;6.286;2022-12-05T07:41:23;23.60;21.60;10.60
51320;PMS5003;38732;49.556;6.286;2022-12-05T07:43:54;28.00;17.60;10.20
51320;PMS5003;38732;49.556;6.286;2022-12-05T07:46:26;31.00;20.00;10.00
51320;PMS5003;38732;49.556;6.286;2022-12-05T07:48:55;25.00;16.00;8.80
51320;PMS5003;38732;49.556;6.286;2022-12-05T07:51:24;22.00;17.50;10.00
51320;PMS5003;38732;49.556;6.286;2022-12-05T07:53:52;15.75;14.00;9.00
51320;PMS5003;38732;49.556;6.286;2022-12-05T07:56:20;17.25;17.25;10.50
51320;PMS5003;38732;49.556;6.286;2022-12-05T07:58:49;22.00;15.50;9.00
51320;PMS5003;38732;49.556;6.286;2022-12-05T08:01:18;23.25;16.50;10.00
51320;PMS5003;38732;49.556;6.286;2022-12-05T08:03:55;20.60;18.00;10.60
51320;PMS5003;38732;49.556;6.286;2022-12-05T08:06:26;19.40;16.80;9.40
51320;PMS5003;38732;49.556;6.286;2022-12-05T08:08:56;26.00;19.40;8.20
51320;PMS5003;38732;49.556;6.286;2022-12-05T08:11:26;10.50;5.00;5.00
51320;PMS5003;38732;49.556;6.286;2022-12-05T08:13:56;19.40;14.00;10.00
51320;PMS5003;38732;49.556;6.286;2022-12-05T08:16:26;19.80;17.40;9.60
51320;PMS5003;38732;49.556;6.286;2022-12-05T08:18:56;18.80;18.60;10.20
51320;PMS5003;38732;49.556;6.286;2022-12-05T08:21:26;22.40;17.00;11.00
51320;PMS5003;38732;49.556;6.286;2022-12-05T08:23:54;16.00;16.00;9.25
51320;PMS5003;38732;49.556;6.286;2022-12-05T08:26:25;17.40;13.40;7.00
51320;PMS5003;38732;49.556;6.286;2022-12-05T08:29:18;24.00;17.00;10.00
51320;PMS5003;38732;49.556;6.286;2022-12-05T08:31:47;23.60;20.00;12.80
51320;PMS5003;38732;49.556;6.286;2022-12-05T08:34:17;18.60;17.20;10.40
51320;PMS5003;38732;49.556;6.286;2022-12-05T08:36:47;31.60;22.80;13.20
51320;PMS5003;38732;49.556;6.286;2022-12-05T08:39:15;20.00;15.00;10.00
51320;PMS5003;38732;49.556;6.286;2022-12-05T08:41:45;19.00;14.80;5.80
51320;PMS5003;38732;49.556;6.286;2022-12-05T08:44:15;23.00;23.00;14.00
51320;PMS5003;38732;49.556;6.286;2022-12-05T08:46:44;25.00;20.50;11.50
51320;PMS5003;38732;49.556;6.286;2022-12-05T08:49:14;23.00;18.80;11.80
51320;PMS5003;38732;49.556;6.286;2022-12-05T08:51:43;21.50;20.00;11.25
51320;PMS5003;38732;49.556;6.286;2022-12-05T08:54:12;17.75;17.50;10.75
51320;PMS5003;38732;49.556;6.286;2022-12-05T08:56:40;24.75;19.00;9.50
51320;PMS5003;38732;49.556;6.286;2022-12-05T08:59:08;22.00;16.75;8.00
51320;PMS5003;38732;49.556;6.286;2022-12-05T09:01:37;18.75;14.50;4.00
51320;PMS5003;38732;49.556;6.286;2022-12-05T09:04:05;19.75;17.00;10.00
51320;PMS5003;38732;49.556;6.286;2022-12-05T09:06:34;29.00;22.25;11.00
51320;PMS5003;38732;49.556;6.286;2022-12-05T09:09:04;26.80;20.60;10.80
51320;PMS5003;38732;49.556;6.286;2022-12-05T09:11:35;23.20;17.60;10.00
51320;PMS5003;38732;49.556;6.286;2022-12-05T09:14:06;30.00;21.20;13.00
51320;PMS5003;38732;49.556;6.286;2022-12-05T09:16:35;27.25;20.00;11.00
51320;PMS5003;38732;49.556;6.286;2022-12-05T09:19:05;24.60;23.00;11.00
51320;PMS5003;38732;49.556;6.286;2022-12-05T09:21:40;25.80;20.40;11.20
51320;PMS5003;38732;49.556;6.286;2022-12-05T09:24:10;18.50;17.00;8.50
51320;PMS5003;38732;49.556;6.286;2022-12-05T09:26:39;24.60;19.80;11.40
51320;PMS5003;38732;49.556;6.286;2022-12-05T09:29:08;28.00;22.25;10.75
51320;PMS5003;38732;49.556;6.286;2022-12-05T09:31:37;35.00;22.40;12.00
51320;PMS5003;38732;49.556;6.286;2022-12-05T09:34:06;24.00;18.60;11.40
51320;PMS5003;38732;49.556;6.286;2022-12-05T09:36:34;32.50;25.75;12.50
51320;PMS5003;38732;49.556;6.286;2022-12-05T09:39:03;39.75;34.00;17.50
51320;PMS5003;38732;49.556;6.286;2022-12-05T09:44:54;19.60;13.00;8.20
51320;PMS5003;38732;49.556;6.286;2022-12-05T09:50:10;23.60;22.20;11.80
51320;PMS5003;38732;49.556;6.286;2022-12-05T09:52:53;32.20;21.80;13.00
51320;PMS5003;38732;49.556;6.286;2022-12-05T09:55:48;31.20;27.80;14.40
51320;PMS5003;38732;49.556;6.286;2022-12-05T10:01:02;32.20;27.60;14.60
51320;PMS5003;38732;49.556;6.286;2022-12-05T10:03:41;32.20;23.60;14.00
51320;PMS5003;38732;49.556;6.286;2022-12-05T10:06:35;23.80;16.20;6.60
51320;PMS5003;38732;49.556;6.286;2022-12-05T10:09:33;32.00;21.80;12.00
51320;PMS5003;38732;49.556;6.286;2022-12-05T10:12:17;22.80;21.40;12.60
51320;PMS5003;38732;49.556;6.286;2022-12-05T10:15:02;23.80;20.40;11.20
51320;PMS5003;38732;49.556;6.286;2022-12-05T10:17:32;26.80;20.20;8.80
51320;PMS5003;38732;49.556;6.286;2022-12-05T10:20:08;32.80;21.80;11.00
51320;PMS5003;38732;49.556;6.286;2022-12-05T10:22:46;30.80;24.60;11.20
51320;PMS5003;38732;49.556;6.286;2022-12-05T10:25:20;21.20;20.60;11.20
51320;PMS5003;38732;49.556;6.286;2022-12-05T10:27:53;27.00;22.00;11.60
51320;PMS5003;38732;49.556;6.286;2022-12-05T10:30:31;25.40;21.20;14.00
51320;PMS5003;38732;49.556;6.286;2022-12-05T10:33:02;41.00;30.80;18.00
51320;PMS5003;38732;49.556;6.286;2022-12-05T10:35:39;39.00;31.00;17.00
51320;PMS5003;38732;49.556;6.286;2022-12-05T10:38:16;45.60;41.40;21.20
51320;PMS5003;38732;49.556;6.286;2022-12-05T10:40:53;36.60;31.40;19.80
51320;PMS5003;38732;49.556;6.286;2022-12-05T10:43:28;30.60;27.60;16.20
51320;PMS5003;38732;49.556;6.286;2022-12-05T10:45:58;35.00;29.20;17.00
51320;PMS5003;38732;49.556;6.286;2022-12-05T10:48:28;34.40;28.80;16.20
51320;PMS5003;38732;49.556;6.286;2022-12-05T10:50:57;34.50;28.00;14.00
51320;PMS5003;38732;49.556;6.286;2022-12-05T10:53:39;18.25;11.00;5.00
51320;PMS5003;38732;49.556;6.286;2022-12-05T10:59:08;21.00;18.40;11.20
51320;PMS5003;38732;49.556;6.286;2022-12-05T11:01:50;21.60;21.60;11.40
51320;PMS5003;38732;49.556;6.286;2022-12-05T11:06:55;14.00;14.00;5.80
51320;PMS5003;38732;49.556;6.286;2022-12-05T11:09:30;17.60;14.80;8.00
51320;PMS5003;38732;49.556;6.286;2022-12-05T11:12:14;21.20;18.20;11.00
51320;PMS5003;38732;49.556;6.286;2022-12-05T11:14:55;20.20;18.40;12.00
51320;PMS5003;38732;49.556;6.286;2022-12-05T11:17:33;23.40;20.20;12.80
51320;PMS5003;38732;49.556;6.286;2022-12-05T11:22:45;21.40;16.00;11.00
51320;PMS5003;38732;49.556;6.286;2022-12-05T11:25:23;21.80;17.40;9.00
51320;PMS5003;38732;49.556;6.286;2022-12-05T11:27:55;21.40;15.80;9.40
51320;PMS5003;38732;49.556;6.286;2022-12-05T11:30:25;22.80;20.20;10.20
51320;PMS5003;38732;49.556;6.286;2022-12-05T11:35:50;20.80;18.60;11.60
51320;PMS5003;38732;49.556;6.286;2022-12-05T11:38:24;23.40;20.20;11.00
51320;PMS5003;38732;49.556;6.286;2022-12-05T11:49:27;28.00;17.60;12.00
51320;PMS5003;38732;49.556;6.286;2022-12-05T11:52:17;23.00;20.60;11.00
51320;PMS5003;38732;49.556;6.286;2022-12-05T11:55:16;24.60;21.00;11.00
51320;PMS5003;38732;49.556;6.286;2022-12-05T12:00:55;23.40;18.00;14.00
51320;PMS5003;38732;49.556;6.286;2022-12-05T12:04:02;47.60;37.40;20.80
51320;PMS5003;38732;49.556;6.286;2022-12-05T12:06:56;51.00;40.80;25.80
51320;PMS5003;38732;49.556;6.286;2022-12-05T12:09:57;33.20;28.00;16.80
51320;PMS5003;38732;49.556;6.286;2022-12-05T12:12:56;39.60;34.80;17.20
51320;PMS5003;38732;49.556;6.286;2022-12-05T12:16:09;31.20;27.80;17.20
51320;PMS5003;38732;49.556;6.286;2022-12-05T12:19:04;33.40;23.00;16.80
51320;PMS5003;38732;49.556;6.286;2022-12-05T12:27:37;30.80;25.80;15.20
51320;PMS5003;38732;49.556;6.286;2022-12-05T12:30:44;27.80;25.60;15.40
51320;PMS5003;38732;49.556;6.286;2022-12-05T12:33:27;19.80;18.80;9.00
51320;PMS5003;38732;49.556;6.286;2022-12-05T12:42:00;28.00;25.80;15.00
51320;PMS5003;38732;49.556;6.286;2022-12-05T12:45:01;30.00;22.60;13.40
51320;PMS5003;38732;49.556;6.286;2022-12-05T12:50:52;20.20;15.00;12.00
51320;PMS5003;38732;49.556;6.286;2022-12-05T12:56:20;25.20;22.20;11.40
51320;PMS5003;38732;49.556;6.286;2022-12-05T12:59:17;19.60;17.00;9.00
51320;PMS5003;38732;49.556;6.286;2022-12-05T13:02:03;19.80;17.00;11.00
51320;PMS5003;38732;49.556;6.286;2022-12-05T13:04:38;17.80;17.60;11.00
51320;PMS5003;38732;49.556;6.286;2022-12-05T13:07:15;25.00;18.40;9.40
51320;PMS5003;38732;49.556;6.286;2022-12-05T13:09:49;19.60;16.00;11.20
51320;PMS5003;38732;49.556;6.286;2022-12-05T13:12:24;20.80;16.00;10.20
51320;PMS5003;38732;49.556;6.286;2022-12-05T13:15:06;25.60;20.60;11.00
51320;PMS5003;38732;49.556;6.286;2022-12-05T13:17:41;12.20;12.00;7.60
51320;PMS5003;38732;49.556;6.286;2022-12-05T13:20:13;22.20;16.80;9.00
51320;PMS5003;38732;49.556;6.286;2022-12-05T13:22:44;19.80;16.40;8.60
51320;PMS5003;38732;49.556;6.286;2022-12-05T13:25:16;21.00;16.60;8.40
51320;PMS5003;38732;49.556;6.286;2022-12-05T13:28:15;12.80;11.60;9.00
51320;PMS5003;38732;49.556;6.286;2022-12-05T13:30:52;16.80;16.80;9.40
51320;PMS5003;38732;49.556;6.286;2022-12-05T13:33:21;15.40;14.80;9.00
51320;PMS5003;38732;49.556;6.286;2022-12-05T13:35:56;6.00;2.00;0.00
51320;PMS5003;38732;49.556;6.286;2022-12-05T13:38:33;20.00;15.00;8.40
51320;PMS5003;38732;49.556;6.286;2022-12-05T13:41:05;19.60;16.20;9.80
51320;PMS5003;38732;49.556;6.286;2022-12-05T13:43:33;16.50;12.75;6.00
51320;PMS5003;38732;49.556;6.286;2022-12-05T13:46:09;15.00;12.20;8.00
51320;PMS5003;38732;49.556;6.286;2022-12-05T13:48:46;17.20;13.80;8.00
51320;PMS5003;38732;49.556;6.286;2022-12-05T13:51:20;14.20;11.00;6.80
51320;PMS5003;38732;49.556;6.286;2022-12-05T13:53:58;14.60;12.00;7.60
51320;PMS5003;38732;49.556;6.286;2022-12-05T14:07:46;9.80;9.80;6.00
51320;PMS5003;38732;49.556;6.286;2022-12-05T14:10:19;11.60;11.20;6.00
51320;PMS5003;38732;49.556;6.286;2022-12-05T14:12:54;12.00;10.40;6.00
51320;PMS5003;38732;49.556;6.286;2022-12-05T14:15:23;8.80;8.80;6.20
51320;PMS5003;38732;49.556;6.286;2022-12-05T14:18:39;11.20;8.60;5.00
51320;PMS5003;38732;49.556;6.286;2022-12-05T14:26:56;10.60;9.00;7.60
51320;PMS5003;38732;49.556;6.286;2022-12-05T14:37:40;9.60;6.20;1.00
51320;PMS5003;38732;49.556;6.286;2022-12-05T14:40:28;14.80;9.20;4.00
51320;PMS5003;38732;49.556;6.286;2022-12-05T14:54:03;14.60;11.00;6.80
51320;PMS5003;38732;49.556;6.286;2022-12-05T14:56:37;12.00;11.60;7.80
51320;PMS5003;38732;49.556;6.286;2022-12-05T14:59:28;7.80;6.80;4.20
51320;PMS5003;38732;49.556;6.286;2022-12-05T15:02:03;9.00;8.40;4.60
51320;PMS5003;38732;49.556;6.286;2022-12-05T15:04:41;11.25;9.50;5.00
51320;PMS5003;38732;49.556;6.286;2022-12-05T15:07:21;12.20;11.40;7.80
51320;PMS5003;38732;49.556;6.286;2022-12-05T15:09:59;25.40;14.80;8.80
51320;PMS5003;38732;49.556;6.286;2022-12-05T15:15:12;11.20;11.20;6.80
51320;PMS5003;38732;49.556;6.286;2022-12-05T15:17:51;9.80;8.00;5.00
51320;PMS5003;38732;49.556;6.286;2022-12-05T15:29:10;12.80;12.80;7.80
51320;PMS5003;38732;49.556;6.286;2022-12-05T15:32:00;20.00;13.80;8.40
51320;PMS5003;38732;49.556;6.286;2022-12-05T15:34:35;17.80;14.20;8.00
51320;PMS5003;38732;49.556;6.286;2022-12-05T15:42:45;11.60;11.00;7.40
51320;PMS5003;38732;49.556;6.286;2022-12-05T15:45:25;14.40;14.00;8.20
51320;PMS5003;38732;49.556;6.286;2022-12-05T15:53:11;13.40;12.20;7.20
51320;PMS5003;38732;49.556;6.286;2022-12-05T15:58:24;8.00;7.40;4.80
51320;PMS5003;38732;49.556;6.286;2022-12-05T16:06:49;17.20;14.20;8.00
51320;PMS5003;38732;49.556;6.286;2022-12-05T16:09:25;18.00;18.00;11.80
51320;PMS5003;38732;49.556;6.286;2022-12-05T16:11:59;26.60;19.40;11.80
51320;PMS5003;38732;49.556;6.286;2022-12-05T16:14:30;14.80;14.00;8.00
51320;PMS5003;38732;49.556;6.286;2022-12-05T16:17:02;10.20;10.20;5.40
51320;PMS5003;38732;49.556;6.286;2022-12-05T16:19:32;24.20;21.80;18.80
51320;PMS5003;38732;49.556;6.286;2022-12-05T16:22:01;19.75;16.00;11.75
51320;PMS5003;38732;49.556;6.286;2022-12-05T16:24:44;17.60;17.60;9.80
51320;PMS5003;38732;49.556;6.286;2022-12-05T16:27:27;19.80;17.00;10.60
51320;PMS5003;38732;49.556;6.286;2022-12-05T16:30:16;14.60;11.80;7.40
51320;PMS5003;38732;49.556;6.286;2022-12-05T16:32:47;43.60;36.40;25.20
51320;PMS5003;38732;49.556;6.286;2022-12-05T16:38:04;39.20;35.40;18.60
51320;PMS5003;38732;49.556;6.286;2022-12-05T16:40:37;55.00;42.60;24.00
51320;PMS5003;38732;49.556;6.286;2022-12-05T16:43:17;65.00;54.20;32.00
51320;PMS5003;38732;49.556;6.286;2022-12-05T16:45:51;61.80;45.40;28.40
51320;PMS5003;38732;49.556;6.286;2022-12-05T16:48:40;75.25;57.50;32.50
51320;PMS5003;38732;49.556;6.286;2022-12-05T16:53:41;22.40;17.20;11.40
51320;PMS5003;38732;49.556;6.286;2022-12-05T16:56:31;15.60;12.40;7.40
51320;PMS5003;38732;49.556;6.286;2022-12-05T16:59:03;32.00;26.20;17.20
51320;PMS5003;38732;49.556;6.286;2022-12-05T17:01:33;12.40;12.40;7.60
51320;PMS5003;38732;49.556;6.286;2022-12-05T17:04:02;16.25;12.00;8.00
51320;PMS5003;38732;49.556;6.286;2022-12-05T17:06:30;14.25;12.00;5.50
51320;PMS5003;38732;49.556;6.286;2022-12-05T17:08:58;26.00;22.50;12.50
51320;PMS5003;38732;49.556;6.286;2022-12-05T17:11:28;11.00;11.00;7.00
51320;PMS5003;38732;49.556;6.286;2022-12-05T17:13:59;12.40;12.00;7.20